TimeCST,TemperatureF,Dew PointF,Humidity,Sea Level PressureIn,VisibilityMPH,Wind Direction,Wind SpeedMPH,Gust SpeedMPH,PrecipitationIn,Events,Conditions,WindDirDegrees,DateUTC
12:12 AM,28.4,24.8,86,30.32,2.0,NNW,12.7,21.9,0.00,Snow,Light Snow,340,2013-11-22 06:12:00
12:19 AM,28.4,24.8,86,30.32,2.0,NNW,11.5,-,0.00,Snow,Light Snow,340,2013-11-22 06:19:00
12:36 AM,28.4,24.8,86,30.32,1.5,NNW,16.1,-,0.00,Snow,Light Snow,340,2013-11-22 06:36:00
12:54 AM,28.0,24.1,85,30.38,2.0,NNW,13.8,-,0.00,Snow,Light Snow,340,2013-11-22 06:54:00
1:18 AM,28.4,24.8,86,30.34,1.8,NNW,16.1,-,0.00,Snow,Light Snow,340,2013-11-22 07:18:00
1:45 AM,26.6,23.0,86,30.34,2.5,NNW,18.4,27.6,0.00,Snow,Light Snow,340,2013-11-22 07:45:00
1:54 AM,27.0,23.0,85,30.41,2.5,NNW,18.4,25.3,0.00,Snow,Light Snow,340,2013-11-22 07:54:00
2:07 AM,26.6,21.2,80,30.36,3.0,NNW,18.4,25.3,0.00,Snow,Light Snow,340,2013-11-22 08:07:00
2:30 AM,26.6,21.2,80,30.37,2.5,NNW,12.7,23.0,0.00,Snow,Light Snow,330,2013-11-22 08:30:00
2:54 AM,26.1,21.9,84,30.43,1.8,NNW,16.1,-,0.00,Snow,Light Snow,340,2013-11-22 08:54:00
3:10 AM,26.6,21.2,80,30.38,2.5,NNW,13.8,-,0.00,Snow,Light Snow,340,2013-11-22 09:10:00
3:54 AM,26.1,21.9,84,30.42,1.8,North,11.5,-,0.00,Snow,Light Snow,350,2013-11-22 09:54:00
4:01 AM,26.6,21.2,80,30.38,2.5,NNW,11.5,-,0.00,Snow,Light Snow,340,2013-11-22 10:01:00
4:06 AM,26.6,21.2,80,30.37,3.0,NNW,10.4,-,0.00,Snow,Light Snow,340,2013-11-22 10:06:00
4:54 AM,25.0,19.9,81,30.44,10.0,NNW,12.7,-,0.00,,Overcast,340,2013-11-22 10:54:00
5:13 AM,24.8,19.4,80,30.39,10.0,NNW,13.8,-,N/A,,Overcast,330,2013-11-22 11:13:00
5:24 AM,24.8,19.4,80,30.39,10.0,NNW,17.3,-,N/A,,Mostly Cloudy,340,2013-11-22 11:24:00
5:54 AM,25.0,19.9,81,30.47,10.0,NNW,12.7,-,N/A,,Mostly Cloudy,330,2013-11-22 11:54:00
6:03 AM,24.8,19.4,80,30.41,10.0,NNW,12.7,-,N/A,,Mostly Cloudy,330,2013-11-22 12:03:00
6:54 AM,24.1,19.0,81,30.49,10.0,NW,11.5,-,N/A,,Overcast,320,2013-11-22 12:54:00
7:54 AM,24.1,19.0,81,30.51,10.0,NNW,9.2,-,N/A,,Overcast,330,2013-11-22 13:54:00
8:54 AM,23.0,17.1,78,30.52,10.0,NNW,13.8,-,N/A,,Mostly Cloudy,330,2013-11-22 14:54:00
9:23 AM,24.8,17.6,74,30.46,10.0,NW,10.4,-,N/A,,Scattered Clouds,320,2013-11-22 15:23:00
9:54 AM,25.0,17.1,72,30.51,10.0,NW,8.1,-,N/A,,Clear,320,2013-11-22 15:54:00
10:54 AM,27.0,18.0,69,30.52,10.0,NW,10.4,-,N/A,,Clear,320,2013-11-22 16:54:00
11:54 AM,27.0,17.1,66,30.51,10.0,West,9.2,-,N/A,,Clear,280,2013-11-22 17:54:00
12:54 PM,28.0,12.9,53,30.49,10.0,WNW,9.2,-,N/A,,Clear,290,2013-11-22 18:54:00
1:54 PM,28.9,12.0,49,30.48,10.0,WNW,8.1,-,N/A,,Clear,290,2013-11-22 19:54:00
2:54 PM,30.9,12.9,47,30.47,10.0,West,6.9,-,N/A,,Clear,260,2013-11-22 20:54:00
3:54 PM,28.9,10.9,47,30.45,10.0,WSW,6.9,16.1,N/A,,Clear,240,2013-11-22 21:54:00
4:54 PM,25.0,12.0,58,30.45,10.0,West,8.1,-,N/A,,Clear,260,2013-11-22 22:54:00
5:54 PM,24.1,12.0,60,30.45,10.0,WSW,8.1,-,N/A,,Clear,250,2013-11-22 23:54:00
6:54 PM,24.1,12.0,60,30.44,10.0,West,9.2,-,N/A,,Clear,260,2013-11-23 00:54:00
7:54 PM,23.0,10.9,60,30.43,10.0,West,10.4,-,N/A,,Partly Cloudy,270,2013-11-23 01:54:00
8:54 PM,21.9,10.9,63,30.44,10.0,West,9.2,-,N/A,,Clear,280,2013-11-23 02:54:00
9:54 PM,21.9,10.9,63,30.44,10.0,WNW,11.5,-,N/A,,Mostly Cloudy,300,2013-11-23 03:54:00
10:49 PM,21.2,15.8,80,30.39,7.0,NW,15.0,-,0.00,Snow,Light Snow,320,2013-11-23 04:49:00
10:54 PM,21.9,15.1,75,30.45,9.0,NW,12.7,-,0.00,,Overcast,320,2013-11-23 04:54:00
11:02 PM,21.2,15.8,80,30.39,10.0,NW,15.0,-,N/A,,Overcast,320,2013-11-23 05:02:00
11:54 PM,21.0,12.9,71,30.47,9.0,NNW,19.6,24.2,0.00,Snow,Light Snow,330,2013-11-23 05:54:00